createdAt,value
2022-10-23T00:01:54.430Z,91.30
2022-10-23T00:04:22.672Z,91.40
2022-10-23T00:06:50.091Z,91.40
2022-10-23T00:09:19.261Z,91.40
2022-10-23T00:11:50.849Z,91.50
2022-10-23T00:14:19.720Z,91.50
2022-10-23T00:16:47.315Z,91.40
2022-10-23T00:19:14.887Z,91.40
2022-10-23T00:21:42.343Z,91.50
2022-10-23T00:26:39.398Z,91.60
2022-10-23T00:29:07.004Z,91.60
2022-10-23T00:31:34.429Z,91.60
2022-10-23T00:34:01.908Z,91.70
2022-10-23T00:36:29.377Z,91.70
2022-10-23T00:38:56.795Z,91.70
2022-10-23T00:41:28.033Z,91.70
2022-10-23T00:44:07.418Z,91.70
2022-10-23T00:46:35.873Z,91.70
2022-10-23T00:49:04.430Z,91.80
2022-10-23T00:51:34.710Z,91.80
2022-10-23T00:54:23.027Z,91.90
2022-10-23T00:56:50.211Z,91.90
2022-10-23T00:59:17.618Z,91.90
2022-10-23T01:01:45.163Z,92.00
2022-10-23T01:04:12.749Z,92.00
2022-10-23T01:07:02.665Z,92.00
2022-10-23T01:09:39.528Z,92.00
2022-10-23T01:12:13.795Z,92.10
2022-10-23T01:14:58.480Z,92.10
2022-10-23T01:17:33.990Z,92.10
2022-10-23T01:20:10.747Z,92.10
2022-10-23T01:22:41.405Z,92.10
2022-10-23T01:25:27.735Z,92.10
2022-10-23T01:28:01.557Z,92.10
2022-10-23T01:30:29.575Z,92.10
2022-10-23T01:33:00.834Z,92.20
2022-10-23T01:35:32.259Z,92.20
2022-10-23T01:38:14.816Z,92.20
2022-10-23T01:40:47.549Z,92.20
2022-10-23T01:43:18.358Z,92.10
2022-10-23T01:45:48.980Z,92.20
2022-10-23T01:48:21.617Z,92.20
2022-10-23T01:50:50.216Z,92.40
2022-10-23T01:53:19.062Z,92.40
2022-10-23T01:55:47.239Z,92.50
2022-10-23T01:58:22.096Z,92.60
2022-10-23T02:00:51.931Z,92.60
2022-10-23T02:03:20.704Z,92.60
2022-10-23T02:05:48.226Z,92.60
2022-10-23T02:08:15.699Z,92.60
2022-10-23T02:10:54.925Z,92.60
2022-10-23T02:13:28.934Z,92.70
2022-10-23T02:16:01.978Z,92.60
2022-10-23T02:18:53.556Z,92.60
2022-10-23T02:21:33.873Z,92.60
2022-10-23T02:24:03.469Z,92.60
2022-10-23T02:26:30.839Z,92.70
2022-10-23T02:29:24.850Z,92.70
2022-10-23T02:31:52.635Z,92.60
2022-10-23T02:34:20.376Z,92.60
2022-10-23T02:36:48.372Z,92.70
2022-10-23T02:39:15.985Z,92.70
2022-10-23T02:41:46.556Z,92.80
2022-10-23T02:44:14.158Z,92.90
2022-10-23T02:46:49.193Z,93.00
2022-10-23T02:49:24.805Z,93.00
2022-10-23T02:52:05.045Z,93.10
2022-10-23T02:54:41.608Z,93.10
2022-10-23T02:57:21.674Z,93.10
2022-10-23T03:00:11.637Z,93.10
2022-10-23T03:02:54.161Z,93.10
2022-10-23T03:05:24.685Z,93.10
2022-10-23T03:07:52.692Z,93.10
2022-10-23T03:10:20.427Z,93.10
2022-10-23T03:12:48.971Z,93.10
2022-10-23T03:15:17.122Z,93.20
2022-10-23T03:17:44.616Z,93.20
2022-10-23T03:20:12.356Z,93.20
2022-10-23T03:22:40.304Z,93.20
2022-10-23T03:25:08.456Z,93.20
2022-10-23T03:27:36.608Z,93.20
2022-10-23T03:30:07.065Z,93.30
2022-10-23T03:32:37.472Z,93.30
2022-10-23T03:35:06.499Z,93.40
2022-10-23T03:37:33.896Z,93.50
2022-10-23T03:40:02.266Z,93.50
2022-10-23T03:42:33.511Z,93.60
2022-10-23T03:45:01.006Z,93.70
2022-10-23T03:47:30.309Z,93.70
2022-10-23T03:49:58.401Z,93.70
2022-10-23T03:52:25.886Z,93.70
2022-10-23T03:54:53.367Z,93.70
2022-10-23T03:57:20.775Z,93.70
2022-10-23T03:59:48.487Z,93.70
2022-10-23T04:02:17.047Z,93.60
2022-10-23T04:04:44.481Z,93.60
2022-10-23T04:07:11.915Z,93.60
2022-10-23T04:09:39.920Z,93.60
2022-10-23T04:12:09.275Z,93.70
2022-10-23T04:14:36.793Z,93.70
2022-10-23T04:17:04.240Z,93.70
2022-10-23T04:19:31.970Z,93.80
2022-10-23T04:21:59.660Z,93.80
2022-10-23T04:24:27.240Z,93.80
2022-10-23T04:26:54.750Z,93.80
2022-10-23T04:29:25.137Z,93.80
2022-10-23T04:31:53.146Z,93.90
2022-10-23T04:34:20.709Z,93.90
2022-10-23T04:37:02.104Z,93.90
2022-10-23T04:39:38.352Z,93.90
2022-10-23T04:42:06.227Z,93.90
2022-10-23T04:44:33.650Z,93.80
2022-10-23T04:47:01.252Z,93.90
2022-10-23T04:49:29.012Z,93.90
2022-10-23T05:01:59.246Z,93.90
2022-10-23T05:04:26.940Z,93.90
2022-10-23T05:07:18.277Z,93.80
2022-10-23T05:13:13.663Z,93.80
2022-10-23T05:18:25.550Z,93.70
2022-10-23T05:20:56.878Z,93.70
2022-10-23T05:23:46.302Z,93.70
2022-10-23T05:26:16.316Z,93.70
2022-10-23T05:28:46.643Z,93.70
2022-10-23T05:31:25.465Z,93.70
2022-10-23T05:34:17.243Z,93.60
2022-10-23T05:36:45.872Z,93.60
2022-10-23T05:39:15.436Z,93.60
2022-10-23T05:41:43.112Z,93.50
2022-10-23T05:44:12.346Z,93.60
2022-10-23T05:46:58.504Z,93.50
2022-10-23T05:49:44.620Z,93.50
2022-10-23T05:52:39.361Z,93.40
2022-10-23T05:56:05.823Z,93.30
2022-10-23T05:58:54.222Z,93.30
2022-10-23T06:01:51.080Z,93.20
2022-10-23T06:04:34.650Z,93.20
2022-10-23T06:07:30.197Z,93.20
2022-10-23T06:10:39.314Z,93.20
2022-10-23T06:13:09.214Z,93.20
2022-10-23T06:15:37.521Z,93.20
2022-10-23T06:18:19.284Z,93.20
2022-10-23T06:20:54.630Z,93.20
2022-10-23T06:23:25.823Z,93.20
2022-10-23T06:26:25.618Z,93.20
2022-10-23T06:29:07.839Z,93.30
2022-10-23T06:31:36.541Z,93.30
2022-10-23T06:34:06.129Z,93.30
2022-10-23T06:36:33.884Z,93.40
2022-10-23T06:39:22.188Z,93.40
2022-10-23T06:42:00.715Z,93.60
2022-10-23T06:44:46.677Z,93.70
2022-10-23T06:47:22.024Z,93.80
2022-10-23T06:50:11.707Z,93.90
2022-10-23T06:52:47.397Z,94.00
2022-10-23T06:55:17.932Z,94.10
2022-10-23T06:57:46.886Z,94.10
2022-10-23T07:00:14.764Z,94.10
2022-10-23T07:02:49.648Z,94.20
2022-10-23T07:05:17.761Z,94.20
2022-10-23T07:07:45.532Z,94.20
2022-10-23T07:10:17.291Z,94.30
2022-10-23T07:12:49.003Z,94.30
2022-10-23T07:15:35.508Z,94.30
2022-10-23T07:18:04.919Z,94.40
2022-10-23T07:20:49.635Z,94.40
2022-10-23T07:23:17.587Z,94.40
2022-10-23T07:25:45.914Z,94.40
2022-10-23T07:28:21.222Z,94.40
2022-10-23T07:30:59.207Z,94.40
2022-10-23T07:33:40.590Z,94.50
2022-10-23T07:36:15.848Z,94.50
2022-10-23T07:38:44.927Z,94.50
2022-10-23T07:41:13.278Z,94.50
2022-10-23T07:43:41.437Z,94.60
2022-10-23T07:46:10.028Z,94.60
2022-10-23T07:48:39.985Z,94.60
2022-10-23T07:51:11.361Z,94.60
2022-10-23T07:53:43.836Z,94.70
2022-10-23T07:56:29.937Z,94.70
2022-10-23T07:59:38.036Z,94.70
2022-10-23T08:02:18.657Z,94.70
2022-10-23T08:04:48.754Z,94.70
2022-10-23T08:07:36.367Z,94.80
2022-10-23T08:10:04.093Z,94.80
2022-10-23T08:12:32.385Z,94.70
2022-10-23T08:14:59.962Z,94.80
2022-10-23T08:17:35.525Z,94.80
2022-10-23T08:20:11.190Z,94.80
2022-10-23T08:22:43.003Z,94.80
2022-10-23T08:25:11.887Z,94.80
2022-10-23T08:27:39.402Z,94.90
2022-10-23T08:30:07.179Z,94.90
2022-10-23T08:32:34.588Z,94.90
2022-10-23T08:35:03.597Z,94.90
2022-10-23T08:37:33.148Z,95.00
2022-10-23T08:40:00.691Z,95.00
2022-10-23T08:42:48.614Z,95.00
2022-10-23T08:45:28.789Z,95.00
2022-10-23T08:48:13.659Z,95.00
2022-10-23T08:51:06.462Z,95.10
2022-10-23T08:53:41.233Z,95.10
2022-10-23T08:56:14.456Z,95.10
2022-10-23T08:58:46.420Z,95.20
2022-10-23T09:01:32.673Z,95.20
2022-10-23T09:04:00.790Z,95.30
2022-10-23T09:06:31.287Z,95.30
2022-10-23T09:09:13.995Z,95.30
2022-10-23T09:11:47.441Z,95.30
2022-10-23T09:14:41.193Z,95.40
2022-10-23T09:17:29.008Z,95.40
2022-10-23T09:20:05.409Z,95.40
2022-10-23T09:22:33.035Z,95.40
2022-10-23T09:25:03.404Z,95.40
2022-10-23T09:27:30.943Z,95.40
2022-10-23T09:29:59.490Z,95.40
2022-10-23T09:32:37.472Z,95.40
2022-10-23T09:35:05.870Z,95.40
2022-10-23T09:37:35.848Z,95.50
2022-10-23T09:40:15.575Z,95.50
2022-10-23T09:42:59.902Z,95.50
2022-10-23T09:45:29.413Z,95.50
2022-10-23T09:48:12.419Z,95.50
2022-10-23T09:50:48.411Z,95.50
2022-10-23T09:53:36.143Z,95.50
2022-10-23T09:56:11.884Z,95.50
2022-10-23T09:58:43.355Z,95.50
2022-10-23T10:01:23.287Z,95.50
2022-10-23T10:03:53.890Z,95.50
2022-10-23T10:06:25.348Z,95.60
2022-10-23T10:09:11.932Z,95.60
2022-10-23T10:11:54.654Z,95.60
2022-10-23T10:14:28.064Z,95.60
2022-10-23T10:17:02.654Z,95.60
2022-10-23T10:19:56.779Z,95.70
2022-10-23T10:22:41.377Z,95.70
2022-10-23T10:25:15.034Z,95.70
2022-10-23T10:27:51.762Z,95.60
2022-10-23T10:30:20.671Z,95.50
2022-10-23T10:32:48.125Z,95.40
2022-10-23T10:35:21.637Z,95.30
2022-10-23T10:37:55.113Z,95.20
2022-10-23T10:40:25.627Z,95.00
2022-10-23T10:43:03.808Z,95.00
2022-10-23T10:45:38.413Z,94.90
2022-10-23T10:48:24.615Z,94.90
2022-10-23T10:51:27.127Z,94.90
2022-10-23T10:54:13.668Z,94.80
2022-10-23T10:56:42.479Z,94.80
2022-10-23T10:59:31.276Z,94.70
2022-10-23T11:01:58.782Z,94.60
2022-10-23T11:04:26.325Z,94.40
2022-10-23T11:06:54.423Z,94.30
2022-10-23T11:09:24.444Z,94.10
2022-10-23T11:11:52.110Z,94.20
2022-10-23T11:14:21.084Z,94.20
2022-10-23T11:16:50.789Z,94.20
2022-10-23T11:19:21.384Z,94.20
2022-10-23T11:21:54.824Z,94.20
2022-10-23T11:24:34.806Z,94.20
2022-10-23T11:27:05.321Z,94.20
2022-10-23T11:29:40.350Z,94.10
2022-10-23T11:32:25.336Z,94.10
2022-10-23T11:35:02.018Z,94.00
2022-10-23T11:37:31.062Z,93.90
2022-10-23T11:40:19.035Z,93.80
2022-10-23T11:42:48.121Z,93.80
2022-10-23T11:45:35.242Z,93.70
2022-10-23T11:48:19.116Z,93.80
2022-10-23T11:50:46.587Z,93.80
2022-10-23T11:53:32.629Z,93.70
2022-10-23T11:56:00.166Z,93.60
2022-10-23T11:58:42.614Z,93.50
2022-10-23T12:01:16.101Z,93.40
2022-10-23T12:03:52.729Z,93.00
2022-10-23T12:06:23.097Z,92.90
2022-10-23T12:08:53.424Z,92.60
2022-10-23T12:11:28.989Z,92.50
2022-10-23T12:13:56.393Z,92.50
2022-10-23T12:16:34.174Z,92.30
2022-10-23T12:19:15.714Z,92.30
2022-10-23T12:21:43.986Z,92.30
2022-10-23T12:24:27.207Z,92.20
2022-10-23T12:26:54.699Z,92.30
2022-10-23T12:29:28.430Z,92.00
2022-10-23T12:32:02.303Z,91.90
2022-10-23T12:34:29.665Z,91.80
2022-10-23T12:37:15.443Z,91.70
2022-10-23T12:39:43.024Z,91.30
2022-10-23T12:42:21.628Z,91.20
2022-10-23T12:44:59.199Z,91.10
2022-10-23T12:47:26.725Z,91.10
2022-10-23T12:49:54.480Z,91.10
2022-10-23T12:52:24.617Z,91.20
2022-10-23T12:54:52.257Z,90.90
2022-10-23T12:57:23.994Z,90.70
2022-10-23T12:59:53.014Z,90.60
2022-10-23T13:02:21.877Z,90.30
2022-10-23T13:04:51.002Z,90.20
2022-10-23T13:07:20.362Z,90.10
2022-10-23T13:09:48.571Z,89.90
2022-10-23T13:12:24.503Z,89.60
2022-10-23T13:15:01.289Z,89.00
2022-10-23T13:17:39.421Z,88.70
2022-10-23T13:20:11.277Z,88.90
2022-10-23T13:22:40.250Z,89.00
2022-10-23T13:25:44.627Z,88.70
2022-10-23T13:28:17.921Z,88.20
2022-10-23T13:30:48.740Z,88.30
2022-10-23T13:33:26.337Z,88.40
2022-10-23T13:36:09.072Z,88.40
2022-10-23T13:39:12.482Z,87.90
2022-10-23T13:41:41.769Z,87.10
2022-10-23T13:44:11.815Z,87.40
2022-10-23T13:46:42.985Z,87.60
2022-10-23T13:49:10.413Z,87.50
2022-10-23T13:52:04.543Z,87.70
2022-10-23T13:54:38.634Z,87.80
2022-10-23T13:57:13.946Z,87.90
2022-10-23T14:06:14.684Z,87.30
2022-10-23T14:08:42.167Z,87.20
2022-10-23T14:11:11.083Z,87.30
2022-10-23T14:23:58.680Z,87.10
2022-10-23T14:26:54.370Z,86.80
2022-10-23T14:29:25.595Z,86.60
2022-10-23T14:31:53.131Z,86.40
2022-10-23T14:38:11.419Z,86.00
2022-10-23T14:41:03.508Z,86.20
2022-10-23T14:46:50.370Z,86.40
2022-10-23T14:49:18.155Z,86.60
2022-10-23T14:51:45.634Z,86.30
2022-10-23T14:54:42.375Z,86.20
2022-10-23T14:57:09.987Z,86.00
2022-10-23T15:02:54.324Z,86.10
2022-10-23T15:05:37.494Z,86.20
2022-10-23T15:08:04.925Z,86.30
2022-10-23T15:10:32.307Z,86.20
2022-10-23T15:12:59.756Z,86.10
2022-10-23T15:15:27.157Z,86.10
2022-10-23T15:21:45.390Z,85.90
2022-10-23T15:24:12.901Z,85.70
2022-10-23T15:26:42.852Z,85.40
2022-10-23T15:29:11.397Z,85.10
2022-10-23T15:31:40.920Z,84.90
2022-10-23T15:37:25.549Z,84.70
2022-10-23T15:39:59.742Z,84.30
2022-10-23T15:42:29.790Z,84.00
2022-10-23T15:44:57.161Z,83.40
2022-10-23T15:47:24.710Z,83.40
2022-10-23T15:49:52.120Z,83.20
2022-10-23T15:52:19.716Z,83.00
2022-10-23T15:54:47.124Z,82.90
2022-10-23T15:57:14.563Z,83.20
2022-10-23T15:59:41.959Z,83.40
2022-10-23T16:02:11.265Z,83.70
2022-10-23T16:04:38.751Z,83.90
2022-10-23T16:07:07.286Z,84.20
2022-10-23T16:09:34.684Z,84.40
2022-10-23T16:12:02.140Z,84.50
2022-10-23T16:14:32.689Z,84.80
2022-10-23T16:17:00.140Z,85.00
2022-10-23T16:19:27.489Z,85.20
2022-10-23T16:21:55.085Z,85.40
2022-10-23T16:24:22.529Z,85.50
2022-10-23T16:26:53.188Z,85.70
2022-10-23T16:29:22.162Z,85.80
2022-10-23T16:31:49.618Z,86.00
2022-10-23T16:34:17.068Z,86.20
2022-10-23T16:36:45.294Z,86.40
2022-10-23T16:39:22.716Z,86.70
2022-10-23T16:42:09.184Z,86.90
2022-10-23T16:44:59.398Z,87.10
2022-10-23T16:47:26.858Z,87.20
2022-10-23T16:49:54.280Z,87.30
2022-10-23T16:52:21.693Z,87.50
2022-10-23T16:54:49.207Z,87.70
2022-10-23T16:57:16.600Z,87.90
2022-10-23T16:59:44.189Z,88.10
2022-10-23T17:02:12.310Z,88.30
2022-10-23T17:04:39.891Z,88.50
2022-10-23T17:07:07.368Z,88.60
2022-10-23T17:09:35.793Z,88.80
2022-10-23T17:12:03.346Z,88.90
2022-10-23T17:14:30.776Z,89.10
2022-10-23T17:17:01.079Z,89.30
2022-10-23T17:19:47.076Z,89.40
2022-10-23T17:22:15.036Z,89.50
2022-10-23T17:24:44.313Z,89.60
2022-10-23T17:27:13.885Z,89.80
2022-10-23T19:26:37.125Z,91.60
2022-10-23T19:29:05.599Z,91.70
2022-10-23T19:31:33.249Z,91.70
2022-10-23T19:34:00.723Z,91.70
2022-10-23T19:46:39.679Z,91.80
2022-10-23T19:52:24.571Z,91.70
2022-10-23T19:54:51.959Z,91.60
2022-10-23T19:57:22.505Z,91.70
2022-10-23T20:16:56.157Z,92.00
2022-10-23T20:19:23.939Z,92.00
2022-10-23T20:36:04.567Z,91.90
2022-10-23T20:42:18.688Z,91.90
2022-10-23T20:48:03.663Z,92.00
2022-10-23T20:53:41.672Z,92.00
2022-10-23T21:05:38.859Z,92.10
2022-10-23T21:08:06.425Z,92.10
2022-10-23T21:10:33.883Z,92.10
2022-10-23T21:16:23.654Z,92.10
2022-10-23T21:18:53.846Z,92.20
2022-10-23T21:21:21.305Z,92.20
2022-10-23T21:23:49.925Z,92.20
2022-10-23T21:27:03.463Z,92.20
2022-10-23T21:32:13.044Z,92.30
2022-10-23T21:34:40.778Z,92.30
2022-10-23T21:57:32.379Z,92.50
2022-10-23T22:00:00.286Z,92.60
2022-10-23T22:02:28.100Z,92.70
2022-10-23T22:04:59.415Z,92.60
2022-10-23T22:07:59.332Z,92.60
2022-10-23T22:10:26.867Z,92.60
2022-10-23T22:12:55.125Z,92.60
2022-10-23T22:15:22.610Z,92.70
2022-10-23T22:17:49.979Z,92.70
2022-10-23T22:20:17.519Z,92.70
2022-10-23T22:22:45.180Z,92.80
2022-10-23T22:25:12.638Z,92.80
2022-10-23T22:28:00.037Z,92.80
2022-10-23T22:30:48.193Z,92.80
2022-10-23T22:33:15.864Z,92.90
2022-10-23T22:35:43.470Z,92.90
2022-10-23T22:38:10.918Z,92.90
2022-10-23T22:40:40.097Z,92.90
2022-10-23T22:43:10.717Z,92.90
2022-10-23T22:45:38.291Z,92.90
2022-10-23T22:48:38.331Z,93.00
2022-10-23T22:51:08.824Z,92.90
2022-10-23T22:53:36.594Z,92.90
2022-10-23T22:56:08.391Z,92.90
2022-10-23T22:58:35.994Z,93.00
2022-10-23T23:01:08.939Z,93.00
2022-10-23T23:03:37.060Z,93.00
2022-10-23T23:06:06.328Z,93.10
2022-10-23T23:08:34.567Z,93.10
2022-10-23T23:11:02.419Z,93.20
2022-10-23T23:13:30.072Z,93.20
2022-10-23T23:15:57.673Z,93.20
2022-10-23T23:18:25.466Z,93.30
2022-10-23T23:20:53.015Z,93.30
2022-10-23T23:23:20.651Z,93.40
2022-10-23T23:25:49.348Z,93.40
2022-10-23T23:28:19.457Z,93.40
2022-10-23T23:30:47.465Z,93.40
2022-10-23T23:33:16.324Z,93.40
2022-10-23T23:35:44.778Z,93.50
2022-10-23T23:38:12.666Z,93.50
2022-10-23T23:40:40.247Z,93.50
2022-10-23T23:43:07.632Z,93.50
2022-10-23T23:45:35.047Z,93.60
2022-10-23T23:48:02.497Z,93.60
2022-10-23T23:50:29.897Z,93.60
2022-10-23T23:52:57.276Z,93.60
2022-10-23T23:55:24.636Z,93.70
2022-10-23T23:57:51.989Z,93.70
